South Washington, Indiana
Current Conditions -  °F | °C
As of 8:15 AM on Tuesday 27 Jan 2015 (Local Time) from KDCY Reporting Station
Haze Haze  
Wind Chill: 24°   Ceiling: 500
Heat Index: 30°   Visibility: 4mi
Dew Point: 27°   Wind: 6mph
Humidity: 87%   Direction: 40°NE
Pressure: 30.05"   Gusts: NA
Location:  38.6427°N, 87.1768°W
Report Text: KDCY 271415Z AUTO 04005KT 4SM BR OVC005 M01/M03 A3005 RMK AO2 T10111030
Loading
Personal Weather Stations






























Interactive Weather Map New forecast layout! Learn more

10-Day Weather Forecast

Advertisements
Track Severe Weather on mobile